createdAt,value
2017-02-03T09:56:22.072Z,11.96
2017-02-03T09:57:36.501Z,12.01
2017-02-03T09:58:50.658Z,12.06
2017-02-03T10:00:05.831Z,12.11
2017-02-03T10:01:23.309Z,12.18
2017-02-03T10:02:37.563Z,12.25
2017-02-03T10:03:52.136Z,12.31
2017-02-03T10:05:06.642Z,12.4
2017-02-03T10:06:22.101Z,12.51
2017-02-03T10:07:37.281Z,12.6
2017-02-03T10:08:52.172Z,12.67
2017-02-03T10:10:06.725Z,12.74
2017-02-03T10:11:22.172Z,12.78
2017-02-03T10:12:36.734Z,12.78
2017-02-03T10:13:51.162Z,12.76
2017-02-03T10:15:05.585Z,12.77
2017-02-03T10:16:20.081Z,12.76
2017-02-03T10:17:34.705Z,12.77
2017-02-03T10:18:48.890Z,12.77
2017-02-03T10:20:03.132Z,12.79
2017-02-03T10:21:18.704Z,12.84
2017-02-03T10:22:34.259Z,12.91
2017-02-03T10:23:51.132Z,12.96
2017-02-03T10:25:05.531Z,13.01
2017-02-03T10:26:20.182Z,13.07
2017-02-03T10:27:34.884Z,13.11
2017-02-03T10:28:49.020Z,13.15
2017-02-03T10:30:03.469Z,13.16
2017-02-03T10:31:17.584Z,13.15
2017-02-03T10:32:32.342Z,13.14
2017-02-03T10:33:46.931Z,13.15
2017-02-03T10:35:00.902Z,13.14
2017-02-03T10:36:15.730Z,13.13
2017-02-03T10:37:29.800Z,13.1
2017-02-03T10:38:43.961Z,13.06
2017-02-03T10:39:58.738Z,13.02
2017-02-03T10:41:12.920Z,12.98
2017-02-03T10:42:27.435Z,12.95
2017-02-03T10:43:41.579Z,12.93
2017-02-03T10:44:56.047Z,12.91
2017-02-03T10:46:11.441Z,12.91
2017-02-03T10:47:26.666Z,12.92
2017-02-03T10:48:40.679Z,12.92
2017-02-03T10:49:55.392Z,12.96
2017-02-03T10:51:10.357Z,12.99
2017-02-03T10:52:25.916Z,13.01
2017-02-03T10:53:41.384Z,13.04
2017-02-03T10:54:55.808Z,13.05
2017-02-03T10:56:10.013Z,13.09
2017-02-03T10:57:24.010Z,13.13
2017-02-03T10:58:39.337Z,13.16
2017-02-03T10:59:53.981Z,13.18
2017-02-03T11:01:09.093Z,13.21
2017-02-03T11:02:23.107Z,13.23
2017-02-03T11:03:39.403Z,13.24
2017-02-03T11:04:54.721Z,13.26
2017-02-03T11:06:19.811Z,13.26
2017-02-03T11:07:34.851Z,13.26
2017-02-03T11:08:49.057Z,13.26
2017-02-03T11:10:03.644Z,13.27
2017-02-03T11:11:18.109Z,13.26
2017-02-03T11:12:33.239Z,13.25
2017-02-03T11:13:48.258Z,13.25
2017-02-03T11:15:03.338Z,13.27
2017-02-03T11:16:17.343Z,13.27
2017-02-03T11:17:31.472Z,13.27
2017-02-03T11:18:46.318Z,13.3
2017-02-03T11:20:01.021Z,13.32
2017-02-03T11:21:15.526Z,13.35
2017-02-03T11:22:29.802Z,13.38
2017-02-03T11:23:44.352Z,13.42
2017-02-03T11:24:59.692Z,13.46
2017-02-03T11:26:13.688Z,13.5
2017-02-03T11:27:28.328Z,13.52
2017-02-03T11:28:43.635Z,13.55
2017-02-03T11:29:59.491Z,13.58
2017-02-03T11:31:15.389Z,13.63
2017-02-03T11:32:29.538Z,13.68
2017-02-03T11:33:45.054Z,13.75
2017-02-03T11:34:59.153Z,13.8
2017-02-03T11:36:13.116Z,13.87
2017-02-03T11:37:28.025Z,13.96
2017-02-03T11:38:42.677Z,14.04
2017-02-03T11:39:56.861Z,14.12
2017-02-03T11:41:13.869Z,14.16
2017-02-03T11:42:30.376Z,14.24
2017-02-03T11:43:45.642Z,14.3
2017-02-03T11:45:00.632Z,14.33
2017-02-03T11:46:15.283Z,14.35
2017-02-03T11:47:30.307Z,14.36
2017-02-03T11:48:44.426Z,14.34
2017-02-03T11:49:59.369Z,14.31
2017-02-03T11:51:14.728Z,14.29
2017-02-03T11:52:29.795Z,14.28
2017-02-03T11:53:44.306Z,14.27
2017-02-03T11:54:58.488Z,14.26
2017-02-03T11:56:12.800Z,14.24
2017-02-03T11:57:26.918Z,14.22
2017-02-03T11:58:41.036Z,14.14
2017-02-03T11:59:56.104Z,14.08
2017-02-03T12:03:29.265Z,13.91
2017-02-03T12:04:43.285Z,13.89
2017-02-03T12:05:57.867Z,13.9
2017-02-03T12:07:12.382Z,13.96
2017-02-03T12:08:28.175Z,13.98
2017-02-03T12:09:42.282Z,14.01
2017-02-03T12:10:56.638Z,14.06
2017-02-03T12:12:10.635Z,14.1
2017-02-03T12:13:25.279Z,14.12
2017-02-03T12:14:40.870Z,14.12
2017-02-03T12:15:55.581Z,14.15
2017-02-03T12:17:10.953Z,14.19
2017-02-03T12:18:25.980Z,14.22
2017-02-03T12:19:40.725Z,14.24
2017-02-03T12:20:55.528Z,14.23
2017-02-03T12:22:11.185Z,14.19
2017-02-03T12:23:25.722Z,14.17
2017-02-03T12:24:41.032Z,14.15
2017-02-03T12:25:55.563Z,14.13
2017-02-03T12:27:10.143Z,14.12
2017-02-03T12:28:24.169Z,14.13
2017-02-03T12:29:38.805Z,14.15
2017-02-03T12:30:54.015Z,14.18
2017-02-03T12:32:08.993Z,14.22
2017-02-03T12:33:23.852Z,14.26
2017-02-03T12:34:37.865Z,14.31
2017-02-03T12:35:52.538Z,14.32
2017-02-03T12:37:06.529Z,14.34
2017-02-03T12:38:21.577Z,14.31
2017-02-03T12:39:36.315Z,14.28
2017-02-03T12:40:53.694Z,14.25
2017-02-03T12:42:08.844Z,14.24
2017-02-03T12:43:24.284Z,14.23
2017-02-03T12:44:38.468Z,14.25
2017-02-03T12:45:53.596Z,14.28
2017-02-03T12:47:08.765Z,14.36
2017-02-03T12:48:24.150Z,14.42
2017-02-03T12:49:38.624Z,14.49
2017-02-03T12:50:53.797Z,14.54
2017-02-03T12:52:08.291Z,14.61
2017-02-03T12:53:22.897Z,14.62
2017-02-03T12:54:37.341Z,14.63
2017-02-03T12:55:53.397Z,14.64
2017-02-03T12:57:08.428Z,14.63
2017-02-03T12:58:22.738Z,14.63
2017-02-03T13:00:27.300Z,14.66
2017-02-03T13:01:41.474Z,14.72
2017-02-03T13:02:56.482Z,14.76
2017-02-03T13:04:11.501Z,14.78
2017-02-03T13:05:26.048Z,14.77
2017-02-03T13:06:40.351Z,14.72
2017-02-03T13:07:54.631Z,14.69
2017-02-03T13:09:08.754Z,14.62
2017-02-03T13:10:23.158Z,14.56
2017-02-03T13:57:29.889Z,13.99
2017-02-03T13:58:45.944Z,13.96
2017-02-03T14:00:00.280Z,13.92
2017-02-03T14:01:14.777Z,13.87
2017-02-03T14:02:30.002Z,13.83
2017-02-03T14:03:45.303Z,13.76
2017-02-03T14:05:00.038Z,13.69
2017-02-03T14:06:14.951Z,13.62
2017-02-03T14:07:47.600Z,13.54
2017-02-03T14:09:02.762Z,13.48
2017-02-03T14:10:16.839Z,13.43
2017-02-03T14:11:30.996Z,13.36
2017-02-03T14:12:45.247Z,13.28
2017-02-03T14:13:59.824Z,13.24
2017-02-03T14:15:13.823Z,13.18
2017-02-03T14:16:28.498Z,13.17
2017-02-03T14:17:43.364Z,13.15
2017-02-03T14:18:57.494Z,13.11
2017-02-03T14:20:11.744Z,13.08
2017-02-03T14:21:25.936Z,13.06
2017-02-03T14:22:41.997Z,13.05
2017-02-03T14:23:56.923Z,13.04
2017-02-03T14:25:13.509Z,13.06
2017-02-03T14:26:28.592Z,13.06
2017-02-03T14:27:43.111Z,13.09
2017-02-03T14:28:58.308Z,13.09
2017-02-03T14:30:12.724Z,13.11
2017-02-03T14:31:28.498Z,13.1
2017-02-03T14:32:43.264Z,13.11
2017-02-03T14:33:57.928Z,13.13
2017-02-03T14:35:11.945Z,13.15
2017-02-03T14:36:27.629Z,13.16
2017-02-03T14:37:43.210Z,13.15
2017-02-03T14:38:57.978Z,13.15
2017-02-03T14:40:14.434Z,13.16
2017-02-03T14:41:29.569Z,13.15
2017-02-03T14:42:44.498Z,13.15
2017-02-03T14:43:59.078Z,13.16
2017-02-03T14:45:13.465Z,13.16
2017-02-03T14:46:29.635Z,13.17
2017-02-03T14:47:43.677Z,13.18
2017-02-03T14:48:59.266Z,13.18
2017-02-03T14:50:13.244Z,13.19
2017-02-03T14:51:29.231Z,13.22
2017-02-03T14:52:43.547Z,13.24
2017-02-03T14:53:58.273Z,13.29
2017-02-03T14:55:12.415Z,13.33
2017-02-03T14:56:28.913Z,13.36
2017-02-03T14:57:44.098Z,13.38
2017-02-03T14:58:59.373Z,13.38
2017-02-03T15:00:14.365Z,13.38
2017-02-03T15:01:29.548Z,13.39
2017-02-03T15:02:44.446Z,13.38
2017-02-03T15:03:59.813Z,13.4
2017-02-03T15:05:15.338Z,13.4
2017-02-03T15:06:30.740Z,13.41
2017-02-03T15:07:47.446Z,13.42
2017-02-03T15:09:01.478Z,13.43
2017-02-03T15:10:16.004Z,13.41
2017-02-03T15:11:30.555Z,13.39
2017-02-03T15:12:46.381Z,13.35
2017-02-03T15:14:00.472Z,13.34
2017-02-03T15:15:14.620Z,13.33
2017-02-03T15:16:29.908Z,13.3
2017-02-03T15:17:44.998Z,13.26
2017-02-03T15:19:00.018Z,13.2
2017-02-03T15:20:16.129Z,13.17
2017-02-03T15:21:30.186Z,13.15
2017-02-03T15:22:44.735Z,13.12
2017-02-03T15:23:59.436Z,13.07
2017-02-03T15:25:14.863Z,13.05
2017-02-03T15:26:30.043Z,13.04
2017-02-03T15:27:45.646Z,13
2017-02-03T15:29:00.108Z,12.98
2017-02-03T15:30:17.138Z,12.96
2017-02-03T15:31:34.623Z,12.93
2017-02-03T15:32:49.154Z,12.95
2017-02-03T15:34:03.873Z,12.94
2017-02-03T15:35:18.587Z,12.94
2017-02-03T15:36:35.470Z,12.95
2017-02-03T15:37:50.600Z,12.93
2017-02-03T15:39:05.739Z,12.91
2017-02-03T15:40:19.708Z,12.89
2017-02-03T15:41:34.854Z,12.88
2017-02-03T15:42:49.270Z,12.86
2017-02-03T15:44:03.440Z,12.85
2017-02-03T15:45:18.829Z,12.84
2017-02-03T15:46:33.475Z,12.84
2017-02-03T15:47:48.528Z,12.82
2017-02-03T15:49:03.421Z,12.8
2017-02-03T15:50:17.910Z,12.75
2017-02-03T15:51:32.870Z,12.73
2017-02-03T15:52:47.800Z,12.73
2017-02-03T15:54:03.590Z,12.71
2017-02-03T15:55:17.827Z,12.72
2017-02-03T15:56:33.998Z,12.74
2017-02-03T15:57:50.734Z,12.77
2017-02-03T15:59:04.734Z,12.79
2017-02-03T16:00:19.157Z,12.79
2017-02-03T16:01:34.129Z,12.77
2017-02-03T16:02:48.320Z,12.75
2017-02-03T16:04:03.969Z,12.75
2017-02-03T16:05:19.502Z,12.77
2017-02-03T16:06:36.243Z,12.77
2017-02-03T16:07:52.446Z,12.79
2017-02-03T16:09:06.509Z,12.81
2017-02-03T16:10:22.098Z,12.8
2017-02-03T16:11:36.787Z,12.79
2017-02-03T16:12:51.684Z,12.8
2017-02-03T16:14:07.710Z,12.79
2017-02-03T16:15:23.182Z,12.79
2017-02-03T16:16:37.592Z,12.79
2017-02-03T16:17:51.622Z,12.78
2017-02-03T16:19:07.420Z,12.77
2017-02-03T16:20:21.863Z,12.75
2017-02-03T16:21:36.859Z,12.75
2017-02-03T16:22:52.443Z,12.73
2017-02-03T16:24:25.806Z,12.7
2017-02-03T16:25:41.356Z,12.66
2017-02-03T16:26:56.124Z,12.62
2017-02-03T16:28:10.770Z,12.58
2017-02-03T16:29:25.215Z,12.55
2017-02-03T16:30:40.323Z,12.53
2017-02-03T16:31:54.677Z,12.52
2017-02-03T16:33:10.233Z,12.48
2017-02-03T16:34:25.344Z,12.44
2017-02-03T16:35:39.804Z,12.38
2017-02-03T16:36:54.460Z,12.34
2017-02-03T16:38:10.003Z,12.29
2017-02-03T16:39:25.702Z,12.25
2017-02-03T16:40:39.778Z,12.21
2017-02-03T16:41:53.989Z,12.18
2017-02-03T16:43:08.324Z,12.15
2017-02-03T16:44:24.700Z,12.13
2017-02-03T16:45:39.542Z,12.11
2017-02-03T16:46:55.743Z,12.09
2017-02-03T16:48:10.333Z,12.07
2017-02-03T16:49:25.363Z,12.04
2017-02-03T16:50:40.641Z,11.99
2017-02-03T16:51:55.824Z,11.96
2017-02-03T16:53:10.845Z,11.93
2017-02-03T16:54:26.412Z,11.89
2017-02-03T16:55:41.702Z,11.84
2017-02-03T16:56:57.125Z,11.81
2017-02-03T16:58:11.937Z,11.78
2017-02-03T16:59:26.698Z,11.75
2017-02-03T17:00:41.706Z,11.72
2017-02-03T17:01:56.311Z,11.67
2017-02-03T17:03:12.497Z,11.65
2017-02-03T17:04:27.510Z,11.63
2017-02-03T17:05:42.832Z,11.6
2017-02-03T17:06:57.118Z,11.59
2017-02-03T17:08:26.543Z,11.56
2017-02-03T17:09:40.957Z,11.53
2017-02-03T17:10:56.372Z,11.49
2017-02-03T17:12:12.838Z,11.46
2017-02-03T17:13:27.682Z,11.42
2017-02-03T17:14:43.302Z,11.36
2017-02-03T17:16:01.475Z,11.29
2017-02-03T17:17:16.963Z,11.23
2017-02-03T17:18:31.929Z,11.19
2017-02-03T17:19:46.233Z,11.16
2017-02-03T17:21:01.204Z,11.15
2017-02-03T17:22:16.043Z,11.13
2017-02-03T17:23:31.009Z,11.11
2017-02-03T17:24:45.704Z,11.06
2017-02-03T17:26:00.402Z,11
2017-02-03T17:27:15.532Z,10.93
2017-02-03T17:28:29.862Z,10.86
2017-02-03T17:29:44.126Z,10.78
2017-02-03T17:30:58.111Z,10.71
2017-02-03T17:32:12.308Z,10.66
2017-02-03T17:33:26.382Z,10.61
2017-02-03T17:35:14.519Z,10.53
2017-02-03T17:36:45.230Z,10.45
2017-02-03T17:38:01.219Z,10.36
2017-02-03T17:39:17.544Z,10.29
2017-02-03T17:40:33.735Z,10.24
2017-02-03T17:41:48.463Z,10.21
2017-02-03T17:43:03.752Z,10.18
2017-02-03T17:44:17.900Z,10.17
2017-02-03T17:45:33.017Z,10.15
2017-02-03T17:46:48.309Z,10.12
2017-02-03T17:48:02.658Z,10.09
2017-02-03T17:49:17.214Z,10.07
2017-02-03T17:50:31.655Z,10.05
2017-02-03T17:51:45.997Z,10.02
2017-02-03T17:53:02.692Z,10.01
2017-02-03T17:54:18.387Z,10
2017-02-03T17:55:33.241Z,9.98
2017-02-03T17:56:47.535Z,9.97
2017-02-03T17:58:04.291Z,9.94
2017-02-03T17:59:19.806Z,9.92
2017-02-03T18:00:36.005Z,9.88
2017-02-03T18:01:51.689Z,9.87
2017-02-03T18:03:06.765Z,9.86
2017-02-03T18:04:21.880Z,9.84
2017-02-03T18:05:35.894Z,9.83
2017-02-03T18:06:50.084Z,9.81
2017-02-03T18:08:05.249Z,9.79
2017-02-03T18:09:20.251Z,9.77
2017-02-03T18:10:34.862Z,9.76
2017-02-03T18:11:50.596Z,9.76
2017-02-03T18:13:06.667Z,9.73
2017-02-03T18:14:28.953Z,9.72
2017-02-03T18:15:43.917Z,9.7
2017-02-03T18:16:59.111Z,9.66
2017-02-03T18:18:13.858Z,9.64
2017-02-03T18:19:29.027Z,9.61
2017-02-03T18:20:43.631Z,9.58
2017-02-03T18:22:02.490Z,9.54
2017-02-03T18:23:21.405Z,9.5
2017-02-03T18:24:35.907Z,9.44
2017-02-03T18:25:50.608Z,9.39
2017-02-03T18:27:08.041Z,9.36
2017-02-03T18:28:23.200Z,9.35
2017-02-03T18:29:38.860Z,9.33
2017-02-03T18:30:53.920Z,9.3
2017-02-03T18:32:09.569Z,9.3
2017-02-03T18:33:25.381Z,9.29
2017-02-03T18:34:42.302Z,9.3
2017-02-03T18:35:57.018Z,9.31
2017-02-03T18:37:12.347Z,9.31
2017-02-03T18:38:27.996Z,9.3
2017-02-03T18:39:45.160Z,9.27
2017-02-03T18:40:59.936Z,9.24
2017-02-03T18:42:14.344Z,9.18
2017-02-03T18:43:28.924Z,9.11
2017-02-03T18:44:43.646Z,9.06
2017-02-03T18:45:59.151Z,9.01
2017-02-03T18:47:13.315Z,8.98
2017-02-03T18:48:27.736Z,8.97
2017-02-03T18:49:42.317Z,8.97
2017-02-03T18:50:57.041Z,8.95
2017-02-03T18:52:11.553Z,8.96
2017-02-03T18:53:25.750Z,8.96
2017-02-03T18:54:41.489Z,8.96
2017-02-03T18:55:56.592Z,8.97
2017-02-03T18:57:11.383Z,8.97
2017-02-03T18:58:26.884Z,8.96
2017-02-03T18:59:41.585Z,8.95
2017-02-03T19:00:57.383Z,8.93
2017-02-03T19:02:12.513Z,8.92
2017-02-03T19:03:27.916Z,8.91
2017-02-03T19:04:43.173Z,8.91
2017-02-03T19:05:57.817Z,8.89
2017-02-03T19:07:12.295Z,8.89
2017-02-03T19:08:26.883Z,8.87
2017-02-03T19:09:41.862Z,8.86
2017-02-03T19:10:57.284Z,8.85
2017-02-03T19:12:12.271Z,8.84
2017-02-03T19:13:26.624Z,8.84
2017-02-03T19:14:41.198Z,8.84
2017-02-03T19:15:55.857Z,8.83
2017-02-03T19:17:11.056Z,8.84
2017-02-03T19:18:25.784Z,8.82
2017-02-03T19:19:41.371Z,8.85
2017-02-03T19:20:56.472Z,8.86
2017-02-03T19:22:10.558Z,8.85
2017-02-03T19:23:25.009Z,8.86
2017-02-03T19:24:40.838Z,8.85
2017-02-03T19:25:55.994Z,8.82
2017-02-03T19:27:12.304Z,8.79
2017-02-03T19:28:26.843Z,8.76
2017-02-03T19:29:41.462Z,8.71
2017-02-03T19:30:57.562Z,8.67
2017-02-03T19:32:12.055Z,8.66
2017-02-03T19:33:26.345Z,8.65
2017-02-03T19:34:41.232Z,8.63
2017-02-03T19:35:56.971Z,8.62
2017-02-03T19:37:10.985Z,8.61
2017-02-03T19:38:25.215Z,8.58
2017-02-03T19:39:39.369Z,8.54
2017-02-03T19:40:54.019Z,8.48
2017-02-03T19:42:08.322Z,8.42
2017-02-03T19:43:23.534Z,8.4
2017-02-03T19:44:38.570Z,8.38
2017-02-03T19:45:53.373Z,8.35
2017-02-03T19:47:08.901Z,8.33
2017-02-03T19:48:24.467Z,8.32
2017-02-03T19:49:39.721Z,8.31
2017-02-03T19:50:53.915Z,8.28
2017-02-03T19:52:11.135Z,8.26
2017-02-03T19:53:25.843Z,8.22
2017-02-03T19:54:42.342Z,8.21
2017-02-03T19:55:56.325Z,8.19
2017-02-03T19:57:10.564Z,8.18
2017-02-03T19:58:24.822Z,8.21
2017-02-03T19:59:40.627Z,8.2
2017-02-03T20:00:55.434Z,8.18
2017-02-03T20:02:10.081Z,8.16
2017-02-03T20:03:24.823Z,8.14
2017-02-03T20:04:40.268Z,8.08
2017-02-03T20:05:54.578Z,8.06
2017-02-03T20:07:09.493Z,8.04
2017-02-03T20:08:25.262Z,8.06
2017-02-03T20:09:39.366Z,8.08
2017-02-03T20:10:55.834Z,8.13
2017-02-03T20:12:11.498Z,8.17
2017-02-03T20:13:38.876Z,8.22
2017-02-03T20:15:02.228Z,8.25
2017-02-03T20:16:16.670Z,8.23
2017-02-03T20:17:31.705Z,8.21
2017-02-03T20:18:46.375Z,8.2
2017-02-03T20:20:00.403Z,8.17
2017-02-03T20:21:21.379Z,8.12
2017-02-03T20:22:35.825Z,8.1
2017-02-03T20:23:50.505Z,8.09
2017-02-03T20:25:04.505Z,8.14
2017-02-03T20:26:19.317Z,8.2
2017-02-03T20:27:37.852Z,8.27
2017-02-03T20:29:10.374Z,8.35
2017-02-03T20:30:27.895Z,8.42
2017-02-03T20:31:42.166Z,8.45
2017-02-03T20:32:57.798Z,8.46
2017-02-03T20:34:13.691Z,8.47
2017-02-03T20:35:28.221Z,8.47
2017-02-03T20:36:43.402Z,8.48
2017-02-03T20:37:58.524Z,8.44
2017-02-03T20:39:13.960Z,8.43
2017-02-03T20:40:28.649Z,8.41
2017-02-03T20:41:44.097Z,8.42
2017-02-03T20:43:08.279Z,8.43
2017-02-03T20:44:22.453Z,8.45
2017-02-03T20:45:36.768Z,8.52
2017-02-03T20:46:51.821Z,8.58
2017-02-03T20:48:05.838Z,8.65
2017-02-03T20:49:20.652Z,8.71
2017-02-03T20:50:35.060Z,8.79
2017-02-03T20:51:49.544Z,8.87
2017-02-03T20:53:05.169Z,8.92
2017-02-03T20:54:19.838Z,8.94
2017-02-03T20:55:35.124Z,8.95
2017-02-03T20:56:49.397Z,8.95
2017-02-03T20:58:04.129Z,8.92
2017-02-03T20:59:19.525Z,8.89
2017-02-03T21:00:33.793Z,8.84
2017-02-03T21:01:48.532Z,8.82
2017-02-03T21:03:03.438Z,8.78
2017-02-03T21:04:18.849Z,8.75
2017-02-03T21:05:34.239Z,8.73
2017-02-03T21:06:50.074Z,8.7
2017-02-03T21:08:04.822Z,8.71
2017-02-03T21:09:19.244Z,8.72
2017-02-03T21:10:36.758Z,8.74
2017-02-03T21:11:50.758Z,8.78
2017-02-03T21:13:05.366Z,8.81
2017-02-03T21:14:19.882Z,8.86
2017-02-03T21:15:34.398Z,8.88
2017-02-03T21:16:48.379Z,8.87
2017-02-03T21:18:02.991Z,8.88
2017-02-03T21:19:17.968Z,8.87
2017-02-03T21:20:32.138Z,8.85
2017-02-03T21:21:48.618Z,8.82
2017-02-03T21:23:02.641Z,8.8
2017-02-03T21:24:17.088Z,8.78
2017-02-03T21:25:32.326Z,8.76
2017-02-03T21:26:47.585Z,8.76
2017-02-03T21:28:02.130Z,8.77
2017-02-03T21:29:16.200Z,8.76
2017-02-03T21:30:31.048Z,8.72
2017-02-03T21:31:45.490Z,8.69
2017-02-03T21:33:00.137Z,8.66
2017-02-03T21:34:15.447Z,8.63
2017-02-03T21:35:29.642Z,8.61
2017-02-03T21:36:43.681Z,8.57
2017-02-03T21:37:57.839Z,8.53
2017-02-03T21:39:12.891Z,8.51
2017-02-03T21:40:27.695Z,8.48
2017-02-03T21:41:42.534Z,8.45
2017-02-03T21:42:57.178Z,8.43
2017-02-03T21:44:12.138Z,8.4
2017-02-03T21:45:27.315Z,8.4
2017-02-03T21:46:42.554Z,8.41
2017-02-03T21:47:56.686Z,8.44
2017-02-03T21:49:11.164Z,8.49
2017-02-03T21:50:26.346Z,8.53
2017-02-03T21:51:41.336Z,8.57
2017-02-03T21:52:56.039Z,8.61
2017-02-03T21:54:10.019Z,8.65
2017-02-03T21:55:24.212Z,8.7
2017-02-03T21:56:38.296Z,8.74
2017-02-03T21:57:52.988Z,8.79
2017-02-03T21:59:07.334Z,8.83
2017-02-03T22:00:21.952Z,8.86
2017-02-03T22:01:36.041Z,8.88
2017-02-03T22:02:50.183Z,8.92
2017-02-03T22:04:04.163Z,8.96
2017-02-03T22:05:19.075Z,8.98
2017-02-03T22:06:34.296Z,9.02
2017-02-03T22:07:48.466Z,9.06
2017-02-03T22:09:02.911Z,9.08
2017-02-03T22:10:21.545Z,9.09
2017-02-03T22:11:36.103Z,9.11
2017-02-03T22:12:50.969Z,9.12
2017-02-03T22:14:04.939Z,9.12
2017-02-03T22:15:19.740Z,9.13
2017-02-03T22:16:33.945Z,9.11
2017-02-03T22:17:58.909Z,9.08
2017-02-03T22:19:13.973Z,9.05
2017-02-03T22:20:28.461Z,9
2017-02-03T22:21:42.933Z,8.94
2017-02-03T22:22:57.395Z,8.91
2017-02-03T22:24:11.586Z,8.85
2017-02-03T22:25:26.798Z,8.81
2017-02-03T22:26:51.016Z,8.8
2017-02-03T22:28:07.945Z,8.81
2017-02-03T22:29:22.912Z,8.81
2017-02-03T22:30:47.213Z,8.82
2017-02-03T22:32:19.351Z,8.82
2017-02-03T22:33:33.485Z,8.81
2017-02-03T22:34:47.900Z,8.82
2017-02-03T22:36:02.190Z,8.8
2017-02-03T22:37:17.043Z,8.81
2017-02-03T22:38:31.199Z,8.83
2017-02-03T22:39:46.021Z,8.83
2017-02-03T22:41:01.125Z,8.84
2017-02-03T22:42:16.261Z,8.83
2017-02-03T22:43:30.707Z,8.83
2017-02-03T22:44:45.274Z,8.83
2017-02-03T22:45:59.986Z,8.78
2017-02-03T22:47:14.491Z,8.75
2017-02-03T22:48:29.368Z,8.75
2017-02-03T22:50:15.414Z,8.77
2017-02-03T22:51:29.591Z,8.8
2017-02-03T22:52:43.550Z,8.84
2017-02-03T22:53:58.616Z,8.86
2017-02-03T22:55:13.028Z,8.87
2017-02-03T22:56:27.152Z,8.87
2017-02-03T22:57:41.894Z,8.88
2017-02-03T22:58:56.020Z,8.86
2017-02-03T23:00:10.540Z,8.88
2017-02-03T23:01:24.653Z,8.9
2017-02-03T23:02:38.704Z,8.9
2017-02-03T23:03:53.572Z,8.9
2017-02-03T23:05:08.003Z,8.89
2017-02-03T23:06:22.568Z,8.85
2017-02-03T23:07:37.046Z,8.83
2017-02-03T23:08:51.202Z,8.84
2017-02-03T23:10:05.923Z,8.83
2017-02-03T23:11:20.101Z,8.83
2017-02-03T23:12:34.085Z,8.83
2017-02-03T23:13:48.200Z,8.83
2017-02-03T23:15:02.614Z,8.83
2017-02-03T23:16:17.471Z,8.82
2017-02-03T23:17:31.535Z,8.82
2017-02-03T23:18:45.684Z,8.83
2017-02-03T23:19:59.682Z,8.84
2017-02-03T23:21:13.860Z,8.85
2017-02-03T23:22:28.590Z,8.86
2017-02-03T23:23:42.747Z,8.88
2017-02-03T23:24:56.692Z,8.87
2017-02-03T23:26:11.250Z,8.85
2017-02-03T23:27:25.685Z,8.85
2017-02-03T23:28:40.113Z,8.87
2017-02-03T23:29:54.059Z,8.89
2017-02-03T23:31:08.178Z,8.91
2017-02-03T23:32:23.576Z,8.93
2017-02-03T23:33:37.741Z,8.96
2017-02-03T23:34:52.082Z,8.98
2017-02-03T23:36:06.657Z,8.99
2017-02-03T23:37:21.071Z,9
2017-02-03T23:38:35.271Z,9.01
2017-02-03T23:39:49.719Z,9.04
2017-02-03T23:41:05.077Z,9.06
2017-02-03T23:42:19.033Z,9.06
2017-02-03T23:43:33.651Z,9.07
2017-02-03T23:44:48.173Z,9.08
2017-02-03T23:46:05.613Z,9.1
2017-02-03T23:47:21.252Z,9.1
2017-02-03T23:48:35.916Z,9.12
2017-02-03T23:49:51.941Z,9.16
2017-02-03T23:51:06.011Z,9.19
2017-02-03T23:52:29.964Z,9.23
2017-02-03T23:53:46.095Z,9.26
2017-02-03T23:55:00.888Z,9.29
2017-02-03T23:56:15.197Z,9.33
2017-02-03T23:57:30.053Z,9.37
2017-02-03T23:58:45.970Z,9.42
